Goldfield, Colorado
Current Conditions -  °F | °C
As of 9:10 PM on Wednesday 17 Dec 2014 (Local Time) from KCWN Reporting Station
Rain Showers Rain Showers  
Wind Chill: 30°   Ceiling: 6500
Heat Index: 30°   Visibility: 0.5mi
Dew Point: 30°   Wind: 2mph
Humidity: 100%   Direction: 330°NNW
Pressure: 29.95"   Gusts: NA
Location:  38.6816°N, 105.071°W
Report Text: KCWN 180410Z AUTO 33002KT 1/2SM -SHRA FG SCT001 BKN065 BKN120 M01/M01 A2995 RMK AO2 VIS 1/2V4 RAB0359E01SHRAB05
Loading
Personal Weather Stations






























Interactive Weather Map New forecast layout! Learn more

10-Day Weather Forecast

Advertisements
Track Severe Weather on mobile